sensor_id;sensor_type;location;lat;lon;timestamp;temperature;humidity
27423;DHT22;14878;50.778;0.258;2022-08-01T00:00:00;19.70;99.90
27423;DHT22;14878;50.778;0.258;2022-08-01T00:01:02;19.60;99.90
27423;DHT22;14878;50.778;0.258;2022-08-01T00:02:03;19.70;99.90
27423;DHT22;14878;50.778;0.258;2022-08-01T00:03:03;19.70;99.90
27423;DHT22;14878;50.778;0.258;2022-08-01T00:04:04;19.70;99.90
27423;DHT22;14878;50.778;0.258;2022-08-01T00:05:07;19.70;99.90
27423;DHT22;14878;50.778;0.258;2022-08-01T00:06:07;19.80;99.90
27423;DHT22;14878;50.778;0.258;2022-08-01T00:07:08;19.80;99.90
27423;DHT22;14878;50.778;0.258;2022-08-01T00:08:09;21.30;99.90
27423;DHT22;14878;50.778;0.258;2022-08-01T00:09:10;19.70;99.90
27423;DHT22;14878;50.778;0.258;2022-08-01T00:10:15;19.70;99.90
27423;DHT22;14878;50.778;0.258;2022-08-01T00:11:16;19.80;99.90
27423;DHT22;14878;50.778;0.258;2022-08-01T00:12:17;19.70;99.90
27423;DHT22;14878;50.778;0.258;2022-08-01T00:13:18;19.70;99.90
27423;DHT22;14878;50.778;0.258;2022-08-01T00:14:18;19.70;99.90
27423;DHT22;14878;50.778;0.258;2022-08-01T00:15:19;19.70;99.90
27423;DHT22;14878;50.778;0.258;2022-08-01T00:16:20;19.70;99.90
27423;DHT22;14878;50.778;0.258;2022-08-01T00:17:23;19.80;99.90
27423;DHT22;14878;50.778;0.258;2022-08-01T00:18:23;19.80;99.90
27423;DHT22;14878;50.778;0.258;2022-08-01T00:19:24;19.80;99.90
27423;DHT22;14878;50.778;0.258;2022-08-01T00:20:25;19.70;99.90
27423;DHT22;14878;50.778;0.258;2022-08-01T00:21:25;19.60;99.90
27423;DHT22;14878;50.778;0.258;2022-08-01T00:22:26;19.70;99.90
27423;DHT22;14878;50.778;0.258;2022-08-01T00:23:27;19.70;99.90
27423;DHT22;14878;50.778;0.258;2022-08-01T00:24:27;19.70;99.90
27423;DHT22;14878;50.778;0.258;2022-08-01T00:25:28;19.70;99.90
27423;DHT22;14878;50.778;0.258;2022-08-01T00:26:29;19.70;99.90
27423;DHT22;14878;50.778;0.258;2022-08-01T00:27:30;19.80;99.90
27423;DHT22;14878;50.778;0.258;2022-08-01T00:28:30;19.70;99.90
27423;DHT22;14878;50.778;0.258;2022-08-01T00:29:31;19.70;99.90
27423;DHT22;14878;50.778;0.258;2022-08-01T00:30:32;19.70;99.90
27423;DHT22;14878;50.778;0.258;2022-08-01T00:31:32;19.60;99.90
27423;DHT22;14878;50.778;0.258;2022-08-01T00:32:36;19.60;99.90
27423;DHT22;14878;50.778;0.258;2022-08-01T00:33:36;19.50;99.90
27423;DHT22;14878;50.778;0.258;2022-08-01T00:34:37;19.50;99.90
27423;DHT22;14878;50.778;0.258;2022-08-01T00:35:38;19.40;99.90
27423;DHT22;14878;50.778;0.258;2022-08-01T00:36:39;19.30;99.90
27423;DHT22;14878;50.778;0.258;2022-08-01T00:37:39;19.20;99.90
27423;DHT22;14878;50.778;0.258;2022-08-01T00:38:43;19.10;99.90
27423;DHT22;14878;50.778;0.258;2022-08-01T00:39:44;20.30;99.90
27423;DHT22;14878;50.778;0.258;2022-08-01T00:40:44;19.00;99.90
27423;DHT22;14878;50.778;0.258;2022-08-01T00:41:45;19.10;99.90
27423;DHT22;14878;50.778;0.258;2022-08-01T00:42:45;19.20;99.90
27423;DHT22;14878;50.778;0.258;2022-08-01T00:43:46;19.20;99.90
27423;DHT22;14878;50.778;0.258;2022-08-01T00:44:47;19.20;99.90
27423;DHT22;14878;50.778;0.258;2022-08-01T00:45:48;19.30;99.90
27423;DHT22;14878;50.778;0.258;2022-08-01T00:46:49;19.30;99.90
27423;DHT22;14878;50.778;0.258;2022-08-01T00:47:49;19.30;99.90
27423;DHT22;14878;50.778;0.258;2022-08-01T00:48:50;19.30;99.90
27423;DHT22;14878;50.778;0.258;2022-08-01T00:49:51;19.20;99.90
27423;DHT22;14878;50.778;0.258;2022-08-01T00:50:52;19.20;99.90
27423;DHT22;14878;50.778;0.258;2022-08-01T00:51:53;19.30;99.90
27423;DHT22;14878;50.778;0.258;2022-08-01T00:52:54;19.30;99.90
27423;DHT22;14878;50.778;0.258;2022-08-01T00:53:55;19.30;99.90
27423;DHT22;14878;50.778;0.258;2022-08-01T00:54:56;19.30;99.90
27423;DHT22;14878;50.778;0.258;2022-08-01T00:55:56;19.20;99.90
27423;DHT22;14878;50.778;0.258;2022-08-01T00:56:58;19.10;99.90
27423;DHT22;14878;50.778;0.258;2022-08-01T00:57:59;19.10;99.90
27423;DHT22;14878;50.778;0.258;2022-08-01T00:58:59;19.10;99.90
27423;DHT22;14878;50.778;0.258;2022-08-01T01:00:00;19.10;99.90
27423;DHT22;14878;50.778;0.258;2022-08-01T01:01:01;19.20;99.90
27423;DHT22;14878;50.778;0.258;2022-08-01T01:02:02;19.20;99.90
27423;DHT22;14878;50.778;0.258;2022-08-01T01:03:03;19.20;99.90
27423;DHT22;14878;50.778;0.258;2022-08-01T01:04:03;19.20;99.90
27423;DHT22;14878;50.778;0.258;2022-08-01T01:05:04;19.20;99.90
27423;DHT22;14878;50.778;0.258;2022-08-01T01:08:24;19.10;99.90
27423;DHT22;14878;50.778;0.258;2022-08-01T01:09:52;19.10;99.90
27423;DHT22;14878;50.778;0.258;2022-08-01T01:11:05;18.20;99.90
27423;DHT22;14878;50.778;0.258;2022-08-01T01:12:29;19.00;99.90
27423;DHT22;14878;50.778;0.258;2022-08-01T01:13:37;19.00;99.90
27423;DHT22;14878;50.778;0.258;2022-08-01T01:16:08;19.00;99.90
27423;DHT22;14878;50.778;0.258;2022-08-01T01:17:12;19.00;99.90
27423;DHT22;14878;50.778;0.258;2022-08-01T01:18:24;18.90;99.90
27423;DHT22;14878;50.778;0.258;2022-08-01T01:19:30;19.00;99.90
27423;DHT22;14878;50.778;0.258;2022-08-01T01:20:47;19.10;99.90
27423;DHT22;14878;50.778;0.258;2022-08-01T01:25:09;19.10;99.90
27423;DHT22;14878;50.778;0.258;2022-08-01T01:30:01;19.00;99.90
27423;DHT22;14878;50.778;0.258;2022-08-01T01:31:03;19.00;99.90
27423;DHT22;14878;50.778;0.258;2022-08-01T01:33:29;17.70;99.90
27423;DHT22;14878;50.778;0.258;2022-08-01T01:34:35;18.90;99.90
27423;DHT22;14878;50.778;0.258;2022-08-01T01:35:42;18.90;99.90
27423;DHT22;14878;50.778;0.258;2022-08-01T01:36:47;18.90;99.90
27423;DHT22;14878;50.778;0.258;2022-08-01T01:37:51;18.90;99.90
27423;DHT22;14878;50.778;0.258;2022-08-01T01:38:55;19.00;99.90
27423;DHT22;14878;50.778;0.258;2022-08-01T01:39:57;19.00;99.90
27423;DHT22;14878;50.778;0.258;2022-08-01T01:41:00;18.70;99.90
27423;DHT22;14878;50.778;0.258;2022-08-01T01:42:05;19.00;99.90
27423;DHT22;14878;50.778;0.258;2022-08-01T01:43:10;19.00;99.90
27423;DHT22;14878;50.778;0.258;2022-08-01T01:44:13;19.00;99.90
27423;DHT22;14878;50.778;0.258;2022-08-01T01:45:16;19.00;99.90
27423;DHT22;14878;50.778;0.258;2022-08-01T01:46:20;19.00;99.90
27423;DHT22;14878;50.778;0.258;2022-08-01T01:47:23;19.10;99.90
27423;DHT22;14878;50.778;0.258;2022-08-01T01:48:26;19.00;99.90
27423;DHT22;14878;50.778;0.258;2022-08-01T01:49:28;19.00;99.90
27423;DHT22;14878;50.778;0.258;2022-08-01T01:50:30;18.90;99.90
27423;DHT22;14878;50.778;0.258;2022-08-01T01:51:32;18.90;99.90
27423;DHT22;14878;50.778;0.258;2022-08-01T01:52:34;18.90;99.90
27423;DHT22;14878;50.778;0.258;2022-08-01T01:53:36;19.00;99.90
27423;DHT22;14878;50.778;0.258;2022-08-01T01:54:40;19.00;99.90
27423;DHT22;14878;50.778;0.258;2022-08-01T01:55:45;19.10;99.90
27423;DHT22;14878;50.778;0.258;2022-08-01T01:56:47;19.10;99.90
27423;DHT22;14878;50.778;0.258;2022-08-01T01:57:52;19.20;99.90
27423;DHT22;14878;50.778;0.258;2022-08-01T01:58:56;19.10;99.90
27423;DHT22;14878;50.778;0.258;2022-08-01T01:59:59;19.10;99.90
27423;DHT22;14878;50.778;0.258;2022-08-01T02:01:01;19.10;99.90
27423;DHT22;14878;50.778;0.258;2022-08-01T02:02:04;19.10;99.90
27423;DHT22;14878;50.778;0.258;2022-08-01T02:03:08;19.10;99.90
27423;DHT22;14878;50.778;0.258;2022-08-01T02:04:10;19.20;99.90
27423;DHT22;14878;50.778;0.258;2022-08-01T02:05:12;19.20;99.90
27423;DHT22;14878;50.778;0.258;2022-08-01T02:06:13;19.30;99.90
27423;DHT22;14878;50.778;0.258;2022-08-01T02:07:21;19.20;99.90
27423;DHT22;14878;50.778;0.258;2022-08-01T02:08:23;19.10;99.90
27423;DHT22;14878;50.778;0.258;2022-08-01T02:09:26;19.20;99.90
27423;DHT22;14878;50.778;0.258;2022-08-01T02:10:29;19.10;99.90
27423;DHT22;14878;50.778;0.258;2022-08-01T02:11:32;19.20;99.90
27423;DHT22;14878;50.778;0.258;2022-08-01T02:12:36;19.30;99.90
27423;DHT22;14878;50.778;0.258;2022-08-01T02:13:38;19.20;99.90
27423;DHT22;14878;50.778;0.258;2022-08-01T02:14:44;19.30;99.90
27423;DHT22;14878;50.778;0.258;2022-08-01T02:15:46;19.30;99.90
27423;DHT22;14878;50.778;0.258;2022-08-01T02:16:50;19.30;99.90
27423;DHT22;14878;50.778;0.258;2022-08-01T02:17:52;19.40;99.90
27423;DHT22;14878;50.778;0.258;2022-08-01T02:18:56;19.30;99.90
27423;DHT22;14878;50.778;0.258;2022-08-01T02:19:58;19.20;99.90
27423;DHT22;14878;50.778;0.258;2022-08-01T02:21:00;19.10;99.90
27423;DHT22;14878;50.778;0.258;2022-08-01T02:23:31;19.20;99.90
27423;DHT22;14878;50.778;0.258;2022-08-01T02:24:44;19.10;99.90
27423;DHT22;14878;50.778;0.258;2022-08-01T02:25:52;19.10;99.90
27423;DHT22;14878;50.778;0.258;2022-08-01T02:26:54;19.20;99.90
27423;DHT22;14878;50.778;0.258;2022-08-01T02:28:04;19.10;99.90
27423;DHT22;14878;50.778;0.258;2022-08-01T02:29:07;19.00;99.90
27423;DHT22;14878;50.778;0.258;2022-08-01T02:30:12;19.00;99.90
27423;DHT22;14878;50.778;0.258;2022-08-01T02:31:17;19.10;99.90
27423;DHT22;14878;50.778;0.258;2022-08-01T02:32:53;19.10;99.90
27423;DHT22;14878;50.778;0.258;2022-08-01T02:34:02;19.10;99.90
27423;DHT22;14878;50.778;0.258;2022-08-01T02:35:06;19.00;99.90
27423;DHT22;14878;50.778;0.258;2022-08-01T02:36:08;19.00;99.90
27423;DHT22;14878;50.778;0.258;2022-08-01T02:37:09;19.00;99.90
27423;DHT22;14878;50.778;0.258;2022-08-01T02:38:12;19.00;99.90
27423;DHT22;14878;50.778;0.258;2022-08-01T02:39:16;19.00;99.90
27423;DHT22;14878;50.778;0.258;2022-08-01T02:40:19;18.90;99.90
27423;DHT22;14878;50.778;0.258;2022-08-01T02:41:22;19.00;99.90
27423;DHT22;14878;50.778;0.258;2022-08-01T02:42:25;19.10;99.90
27423;DHT22;14878;50.778;0.258;2022-08-01T02:43:28;19.00;99.90
27423;DHT22;14878;50.778;0.258;2022-08-01T02:44:33;19.00;99.90
27423;DHT22;14878;50.778;0.258;2022-08-01T02:45:39;18.90;99.90
27423;DHT22;14878;50.778;0.258;2022-08-01T02:46:56;19.00;99.90
27423;DHT22;14878;50.778;0.258;2022-08-01T02:48:03;19.00;99.90
27423;DHT22;14878;50.778;0.258;2022-08-01T02:49:08;19.00;99.90
27423;DHT22;14878;50.778;0.258;2022-08-01T02:50:10;19.00;99.90
27423;DHT22;14878;50.778;0.258;2022-08-01T02:51:14;19.00;99.90
27423;DHT22;14878;50.778;0.258;2022-08-01T02:52:17;19.00;99.90
27423;DHT22;14878;50.778;0.258;2022-08-01T02:53:23;19.10;99.90
27423;DHT22;14878;50.778;0.258;2022-08-01T02:54:25;19.10;99.90
27423;DHT22;14878;50.778;0.258;2022-08-01T02:55:26;19.10;99.90
27423;DHT22;14878;50.778;0.258;2022-08-01T02:56:31;19.00;99.90
27423;DHT22;14878;50.778;0.258;2022-08-01T02:57:38;19.10;99.90
27423;DHT22;14878;50.778;0.258;2022-08-01T02:58:41;19.10;99.90
27423;DHT22;14878;50.778;0.258;2022-08-01T02:59:44;19.00;99.90
27423;DHT22;14878;50.778;0.258;2022-08-01T03:00:46;19.10;99.90
27423;DHT22;14878;50.778;0.258;2022-08-01T03:01:48;19.10;99.90
27423;DHT22;14878;50.778;0.258;2022-08-01T03:02:51;19.10;99.90
27423;DHT22;14878;50.778;0.258;2022-08-01T03:03:55;19.00;99.90
27423;DHT22;14878;50.778;0.258;2022-08-01T03:04:57;19.00;99.90
27423;DHT22;14878;50.778;0.258;2022-08-01T03:05:59;19.00;99.90
27423;DHT22;14878;50.778;0.258;2022-08-01T03:07:03;19.00;99.90
27423;DHT22;14878;50.778;0.258;2022-08-01T03:08:06;19.10;99.90
27423;DHT22;14878;50.778;0.258;2022-08-01T03:09:08;19.00;99.90
27423;DHT22;14878;50.778;0.258;2022-08-01T03:10:10;19.00;99.90
27423;DHT22;14878;50.778;0.258;2022-08-01T03:11:12;18.90;99.90
27423;DHT22;14878;50.778;0.258;2022-08-01T03:12:19;18.90;99.90
27423;DHT22;14878;50.778;0.258;2022-08-01T03:13:22;18.90;99.90
27423;DHT22;14878;50.778;0.258;2022-08-01T03:14:23;18.90;99.90
27423;DHT22;14878;50.778;0.258;2022-08-01T03:15:26;18.90;99.90
27423;DHT22;14878;50.778;0.258;2022-08-01T03:16:30;18.90;99.90
27423;DHT22;14878;50.778;0.258;2022-08-01T03:17:33;18.90;99.90
27423;DHT22;14878;50.778;0.258;2022-08-01T03:18:35;18.90;99.90
27423;DHT22;14878;50.778;0.258;2022-08-01T03:19:38;18.90;99.90
27423;DHT22;14878;50.778;0.258;2022-08-01T03:20:40;18.90;99.90
27423;DHT22;14878;50.778;0.258;2022-08-01T03:21:43;18.90;99.90
27423;DHT22;14878;50.778;0.258;2022-08-01T03:22:45;19.00;99.90
27423;DHT22;14878;50.778;0.258;2022-08-01T03:23:49;19.00;99.90
27423;DHT22;14878;50.778;0.258;2022-08-01T03:24:52;18.90;99.90
27423;DHT22;14878;50.778;0.258;2022-08-01T03:25:54;18.90;99.90
27423;DHT22;14878;50.778;0.258;2022-08-01T03:26:56;17.00;99.90
27423;DHT22;14878;50.778;0.258;2022-08-01T03:27:59;18.90;99.90
27423;DHT22;14878;50.778;0.258;2022-08-01T03:29:14;18.90;99.90
27423;DHT22;14878;50.778;0.258;2022-08-01T03:30:16;19.00;99.90
27423;DHT22;14878;50.778;0.258;2022-08-01T03:31:17;19.00;99.90
27423;DHT22;14878;50.778;0.258;2022-08-01T03:32:19;19.00;99.90
27423;DHT22;14878;50.778;0.258;2022-08-01T03:33:21;19.00;99.90
27423;DHT22;14878;50.778;0.258;2022-08-01T03:34:22;19.00;99.90
27423;DHT22;14878;50.778;0.258;2022-08-01T03:35:26;19.10;99.90
27423;DHT22;14878;50.778;0.258;2022-08-01T03:36:32;19.10;99.90
27423;DHT22;14878;50.778;0.258;2022-08-01T03:37:42;19.00;99.90
27423;DHT22;14878;50.778;0.258;2022-08-01T03:38:46;19.10;99.90
27423;DHT22;14878;50.778;0.258;2022-08-01T03:41:15;19.00;99.90
27423;DHT22;14878;50.778;0.258;2022-08-01T03:42:20;19.00;99.90
27423;DHT22;14878;50.778;0.258;2022-08-01T03:43:34;18.90;99.90
27423;DHT22;14878;50.778;0.258;2022-08-01T03:44:38;18.90;99.90
27423;DHT22;14878;50.778;0.258;2022-08-01T03:45:41;18.90;99.90
27423;DHT22;14878;50.778;0.258;2022-08-01T03:46:48;18.90;99.90
27423;DHT22;14878;50.778;0.258;2022-08-01T03:48:03;19.00;99.90
27423;DHT22;14878;50.778;0.258;2022-08-01T03:49:10;18.90;99.90
27423;DHT22;14878;50.778;0.258;2022-08-01T03:50:13;18.90;99.90
27423;DHT22;14878;50.778;0.258;2022-08-01T03:51:15;18.90;99.90
27423;DHT22;14878;50.778;0.258;2022-08-01T03:52:17;18.80;99.90
27423;DHT22;14878;50.778;0.258;2022-08-01T03:53:23;18.80;99.90
27423;DHT22;14878;50.778;0.258;2022-08-01T03:54:30;18.80;99.90
27423;DHT22;14878;50.778;0.258;2022-08-01T03:55:31;18.80;99.90
27423;DHT22;14878;50.778;0.258;2022-08-01T03:56:33;18.80;99.90
27423;DHT22;14878;50.778;0.258;2022-08-01T03:57:35;18.80;99.90
27423;DHT22;14878;50.778;0.258;2022-08-01T03:58:39;18.80;99.90
27423;DHT22;14878;50.778;0.258;2022-08-01T03:59:40;18.70;99.90
27423;DHT22;14878;50.778;0.258;2022-08-01T04:00:42;18.80;99.90
27423;DHT22;14878;50.778;0.258;2022-08-01T04:01:45;18.70;99.90
27423;DHT22;14878;50.778;0.258;2022-08-01T04:02:49;18.70;99.90
27423;DHT22;14878;50.778;0.258;2022-08-01T04:03:51;18.70;99.90
27423;DHT22;14878;50.778;0.258;2022-08-01T04:04:52;18.80;99.90
27423;DHT22;14878;50.778;0.258;2022-08-01T04:05:53;18.80;99.90
27423;DHT22;14878;50.778;0.258;2022-08-01T04:06:54;18.80;99.90
27423;DHT22;14878;50.778;0.258;2022-08-01T04:07:55;18.70;99.90
27423;DHT22;14878;50.778;0.258;2022-08-01T04:08:56;18.70;99.90
27423;DHT22;14878;50.778;0.258;2022-08-01T04:09:57;18.80;99.90
27423;DHT22;14878;50.778;0.258;2022-08-01T04:10:58;18.80;99.90
27423;DHT22;14878;50.778;0.258;2022-08-01T04:12:00;18.80;99.90
27423;DHT22;14878;50.778;0.258;2022-08-01T04:13:00;18.70;99.90
27423;DHT22;14878;50.778;0.258;2022-08-01T04:14:02;18.70;99.90
27423;DHT22;14878;50.778;0.258;2022-08-01T04:15:04;18.50;99.90
27423;DHT22;14878;50.778;0.258;2022-08-01T04:16:05;18.70;99.90
27423;DHT22;14878;50.778;0.258;2022-08-01T04:17:06;18.70;99.90
27423;DHT22;14878;50.778;0.258;2022-08-01T04:18:07;18.70;99.90
27423;DHT22;14878;50.778;0.258;2022-08-01T04:19:08;18.70;99.90
27423;DHT22;14878;50.778;0.258;2022-08-01T04:20:09;18.70;99.90
27423;DHT22;14878;50.778;0.258;2022-08-01T04:21:12;18.70;99.90
27423;DHT22;14878;50.778;0.258;2022-08-01T04:22:14;18.70;99.90
27423;DHT22;14878;50.778;0.258;2022-08-01T04:23:18;18.70;99.90
27423;DHT22;14878;50.778;0.258;2022-08-01T04:24:22;18.60;99.90
27423;DHT22;14878;50.778;0.258;2022-08-01T04:25:33;18.60;99.90
27423;DHT22;14878;50.778;0.258;2022-08-01T04:26:36;18.50;99.90
27423;DHT22;14878;50.778;0.258;2022-08-01T04:27:40;18.50;99.90
27423;DHT22;14878;50.778;0.258;2022-08-01T04:28:44;18.50;99.90
27423;DHT22;14878;50.778;0.258;2022-08-01T04:29:46;18.50;99.90
27423;DHT22;14878;50.778;0.258;2022-08-01T04:30:50;18.40;99.90
27423;DHT22;14878;50.778;0.258;2022-08-01T04:31:53;18.40;99.90
27423;DHT22;14878;50.778;0.258;2022-08-01T04:32:57;18.50;99.90
27423;DHT22;14878;50.778;0.258;2022-08-01T04:34:04;18.40;99.90
27423;DHT22;14878;50.778;0.258;2022-08-01T04:35:08;18.50;99.90
27423;DHT22;14878;50.778;0.258;2022-08-01T04:36:10;18.40;99.90
27423;DHT22;14878;50.778;0.258;2022-08-01T04:37:12;18.50;99.90
27423;DHT22;14878;50.778;0.258;2022-08-01T04:38:20;18.50;99.90
27423;DHT22;14878;50.778;0.258;2022-08-01T04:39:24;18.50;99.90
27423;DHT22;14878;50.778;0.258;2022-08-01T04:40:31;18.50;99.90
27423;DHT22;14878;50.778;0.258;2022-08-01T04:41:33;18.50;99.90
27423;DHT22;14878;50.778;0.258;2022-08-01T04:42:34;18.50;99.90
27423;DHT22;14878;50.778;0.258;2022-08-01T04:43:39;18.60;99.90
27423;DHT22;14878;50.778;0.258;2022-08-01T04:44:40;18.50;99.90
27423;DHT22;14878;50.778;0.258;2022-08-01T04:45:42;18.50;99.90
27423;DHT22;14878;50.778;0.258;2022-08-01T04:46:44;18.50;99.90
27423;DHT22;14878;50.778;0.258;2022-08-01T04:47:45;18.50;99.90
27423;DHT22;14878;50.778;0.258;2022-08-01T04:48:48;18.50;99.90
27423;DHT22;14878;50.778;0.258;2022-08-01T04:49:50;18.50;99.90
27423;DHT22;14878;50.778;0.258;2022-08-01T04:50:51;18.50;99.90
27423;DHT22;14878;50.778;0.258;2022-08-01T04:51:53;18.50;99.90
27423;DHT22;14878;50.778;0.258;2022-08-01T04:52:58;18.50;99.90
27423;DHT22;14878;50.778;0.258;2022-08-01T04:53:58;18.50;99.90
27423;DHT22;14878;50.778;0.258;2022-08-01T04:55:01;18.50;99.90
27423;DHT22;14878;50.778;0.258;2022-08-01T04:56:03;18.50;99.90
27423;DHT22;14878;50.778;0.258;2022-08-01T04:57:04;18.50;99.90
27423;DHT22;14878;50.778;0.258;2022-08-01T04:58:05;18.50;99.90
27423;DHT22;14878;50.778;0.258;2022-08-01T04:59:07;18.50;99.90
27423;DHT22;14878;50.778;0.258;2022-08-01T05:00:26;18.50;99.90
27423;DHT22;14878;50.778;0.258;2022-08-01T05:01:28;18.50;99.90
27423;DHT22;14878;50.778;0.258;2022-08-01T05:02:29;18.60;99.90
27423;DHT22;14878;50.778;0.258;2022-08-01T05:03:30;18.60;99.90
27423;DHT22;14878;50.778;0.258;2022-08-01T05:04:31;18.60;99.90
27423;DHT22;14878;50.778;0.258;2022-08-01T05:05:32;18.60;99.90
27423;DHT22;14878;50.778;0.258;2022-08-01T05:06:33;18.60;99.90
27423;DHT22;14878;50.778;0.258;2022-08-01T05:07:34;18.70;99.90
27423;DHT22;14878;50.778;0.258;2022-08-01T05:08:36;18.60;99.90
27423;DHT22;14878;50.778;0.258;2022-08-01T05:09:38;18.70;99.90
27423;DHT22;14878;50.778;0.258;2022-08-01T05:10:41;18.70;99.90
27423;DHT22;14878;50.778;0.258;2022-08-01T05:11:42;18.70;99.90
27423;DHT22;14878;50.778;0.258;2022-08-01T05:12:43;18.60;99.90
27423;DHT22;14878;50.778;0.258;2022-08-01T05:13:44;18.00;99.90
27423;DHT22;14878;50.778;0.258;2022-08-01T05:14:45;18.70;99.90
27423;DHT22;14878;50.778;0.258;2022-08-01T05:15:46;18.70;99.90
27423;DHT22;14878;50.778;0.258;2022-08-01T05:16:47;18.60;99.90
27423;DHT22;14878;50.778;0.258;2022-08-01T05:17:48;18.70;99.90
27423;DHT22;14878;50.778;0.258;2022-08-01T05:18:48;18.60;99.90
27423;DHT22;14878;50.778;0.258;2022-08-01T05:19:49;18.60;99.90
27423;DHT22;14878;50.778;0.258;2022-08-01T05:20:50;18.60;99.90
27423;DHT22;14878;50.778;0.258;2022-08-01T05:21:51;18.60;99.90
27423;DHT22;14878;50.778;0.258;2022-08-01T05:22:52;18.60;99.90
27423;DHT22;14878;50.778;0.258;2022-08-01T05:23:53;18.60;99.90
27423;DHT22;14878;50.778;0.258;2022-08-01T05:24:54;18.60;99.90
27423;DHT22;14878;50.778;0.258;2022-08-01T05:25:54;18.60;99.90
27423;DHT22;14878;50.778;0.258;2022-08-01T05:26:56;18.60;99.90
27423;DHT22;14878;50.778;0.258;2022-08-01T05:27:56;18.70;99.90
27423;DHT22;14878;50.778;0.258;2022-08-01T05:28:57;18.10;99.90
27423;DHT22;14878;50.778;0.258;2022-08-01T05:29:58;18.40;99.90
27423;DHT22;14878;50.778;0.258;2022-08-01T05:30:59;18.60;99.90
27423;DHT22;14878;50.778;0.258;2022-08-01T05:32:00;18.60;99.90
27423;DHT22;14878;50.778;0.258;2022-08-01T05:33:00;18.60;99.90
27423;DHT22;14878;50.778;0.258;2022-08-01T05:34:02;18.60;99.90
27423;DHT22;14878;50.778;0.258;2022-08-01T05:35:03;18.70;99.90
27423;DHT22;14878;50.778;0.258;2022-08-01T05:36:04;18.70;99.90
27423;DHT22;14878;50.778;0.258;2022-08-01T05:37:05;18.60;99.90
27423;DHT22;14878;50.778;0.258;2022-08-01T05:38:06;18.60;99.90
27423;DHT22;14878;50.778;0.258;2022-08-01T05:39:06;18.70;99.90
27423;DHT22;14878;50.778;0.258;2022-08-01T05:40:08;18.60;99.90
27423;DHT22;14878;50.778;0.258;2022-08-01T05:41:10;18.60;99.90
27423;DHT22;14878;50.778;0.258;2022-08-01T05:42:11;18.50;99.90
27423;DHT22;14878;50.778;0.258;2022-08-01T05:43:11;18.50;99.90
27423;DHT22;14878;50.778;0.258;2022-08-01T05:44:12;18.50;99.90
27423;DHT22;14878;50.778;0.258;2022-08-01T05:45:13;18.50;99.90
27423;DHT22;14878;50.778;0.258;2022-08-01T05:46:14;18.60;99.90
27423;DHT22;14878;50.778;0.258;2022-08-01T05:47:14;18.60;99.90
27423;DHT22;14878;50.778;0.258;2022-08-01T05:48:15;18.70;99.90
27423;DHT22;14878;50.778;0.258;2022-08-01T05:49:16;18.60;99.90
27423;DHT22;14878;50.778;0.258;2022-08-01T05:50:17;18.60;99.90
27423;DHT22;14878;50.778;0.258;2022-08-01T05:51:18;18.60;99.90
27423;DHT22;14878;50.778;0.258;2022-08-01T05:52:18;18.60;99.90
27423;DHT22;14878;50.778;0.258;2022-08-01T05:53:19;18.60;99.90
27423;DHT22;14878;50.778;0.258;2022-08-01T05:54:20;18.60;99.90
27423;DHT22;14878;50.778;0.258;2022-08-01T05:55:21;18.60;99.90
27423;DHT22;14878;50.778;0.258;2022-08-01T05:56:22;18.70;99.90
27423;DHT22;14878;50.778;0.258;2022-08-01T05:57:23;18.70;99.90
27423;DHT22;14878;50.778;0.258;2022-08-01T05:58:24;18.70;99.90
27423;DHT22;14878;50.778;0.258;2022-08-01T05:59:25;18.80;99.90
27423;DHT22;14878;50.778;0.258;2022-08-01T06:00:26;18.90;99.90
27423;DHT22;14878;50.778;0.258;2022-08-01T06:01:26;18.80;99.90
27423;DHT22;14878;50.778;0.258;2022-08-01T06:02:27;18.80;99.90
27423;DHT22;14878;50.778;0.258;2022-08-01T06:03:28;18.80;99.90
27423;DHT22;14878;50.778;0.258;2022-08-01T06:04:31;21.00;99.90
27423;DHT22;14878;50.778;0.258;2022-08-01T06:05:32;17.10;99.90
27423;DHT22;14878;50.778;0.258;2022-08-01T06:06:33;18.60;99.90
27423;DHT22;14878;50.778;0.258;2022-08-01T06:07:34;18.60;99.90
27423;DHT22;14878;50.778;0.258;2022-08-01T06:08:34;18.60;99.90
27423;DHT22;14878;50.778;0.258;2022-08-01T06:09:35;18.60;99.90
27423;DHT22;14878;50.778;0.258;2022-08-01T06:10:36;18.60;99.90
27423;DHT22;14878;50.778;0.258;2022-08-01T06:11:36;18.60;99.90
27423;DHT22;14878;50.778;0.258;2022-08-01T06:12:38;18.70;99.90
27423;DHT22;14878;50.778;0.258;2022-08-01T06:13:39;18.60;99.90
27423;DHT22;14878;50.778;0.258;2022-08-01T06:14:39;18.70;99.90
27423;DHT22;14878;50.778;0.258;2022-08-01T06:15:40;18.70;99.90
27423;DHT22;14878;50.778;0.258;2022-08-01T06:16:41;18.70;99.90
27423;DHT22;14878;50.778;0.258;2022-08-01T06:17:42;18.70;99.90
27423;DHT22;14878;50.778;0.258;2022-08-01T06:18:42;18.80;99.90
27423;DHT22;14878;50.778;0.258;2022-08-01T06:19:43;18.80;99.90
27423;DHT22;14878;50.778;0.258;2022-08-01T06:20:46;18.80;99.90
27423;DHT22;14878;50.778;0.258;2022-08-01T06:21:50;19.40;99.90
27423;DHT22;14878;50.778;0.258;2022-08-01T06:22:51;18.80;99.90
27423;DHT22;14878;50.778;0.258;2022-08-01T06:23:55;18.80;99.90
27423;DHT22;14878;50.778;0.258;2022-08-01T06:24:55;18.80;99.90
27423;DHT22;14878;50.778;0.258;2022-08-01T06:25:56;18.80;99.90
27423;DHT22;14878;50.778;0.258;2022-08-01T06:26:58;18.70;99.90
27423;DHT22;14878;50.778;0.258;2022-08-01T06:27:59;18.70;99.90
27423;DHT22;14878;50.778;0.258;2022-08-01T06:29:00;18.80;99.90
27423;DHT22;14878;50.778;0.258;2022-08-01T06:30:01;18.80;99.90
27423;DHT22;14878;50.778;0.258;2022-08-01T06:31:02;18.90;99.90
27423;DHT22;14878;50.778;0.258;2022-08-01T06:32:03;18.90;99.90
27423;DHT22;14878;50.778;0.258;2022-08-01T06:33:06;18.90;99.90
27423;DHT22;14878;50.778;0.258;2022-08-01T06:34:08;18.90;99.90
27423;DHT22;14878;50.778;0.258;2022-08-01T06:35:09;18.80;99.90
27423;DHT22;14878;50.778;0.258;2022-08-01T06:36:10;18.80;99.90
27423;DHT22;14878;50.778;0.258;2022-08-01T06:37:10;18.80;99.90
27423;DHT22;14878;50.778;0.258;2022-08-01T06:38:13;18.80;99.90
27423;DHT22;14878;50.778;0.258;2022-08-01T06:39:14;18.90;99.90
27423;DHT22;14878;50.778;0.258;2022-08-01T06:40:15;19.00;99.90
27423;DHT22;14878;50.778;0.258;2022-08-01T06:41:16;19.10;99.90
27423;DHT22;14878;50.778;0.258;2022-08-01T06:42:20;19.10;99.90
27423;DHT22;14878;50.778;0.258;2022-08-01T06:43:20;19.20;99.90
27423;DHT22;14878;50.778;0.258;2022-08-01T06:44:21;19.10;99.90
27423;DHT22;14878;50.778;0.258;2022-08-01T06:45:22;19.10;99.90
27423;DHT22;14878;50.778;0.258;2022-08-01T06:46:25;19.10;99.90
27423;DHT22;14878;50.778;0.258;2022-08-01T06:47:25;19.00;99.90
27423;DHT22;14878;50.778;0.258;2022-08-01T06:48:26;19.00;99.90
27423;DHT22;14878;50.778;0.258;2022-08-01T06:49:27;18.90;99.90
27423;DHT22;14878;50.778;0.258;2022-08-01T06:50:28;19.00;99.90